Terminal Aerodrome Forecast
Issued by NWS Paducah, KY

Home | Current Version | Previous Version | Text Only | Print | Product List | Glossary On
Versions: 1 2 3 4 5 6 7 8 9 10 11 12 13 14 15
000
FTUS43 KPAH 042320
TAFEVV
TAF
KEVV 042320Z 0500/0524 28007KT 3SM -DZ BR BKN005
      TEMPO 0500/0504 1SM -DZ BR SCT005 OVC015
     FM050500 VRB03KT P6SM OVC030
     FM050900 30002KT 1/2SM FG VV007
     FM051400 07005KT 4SM BR OVC040
     FM051900 11007KT P6SM SCT040=

USA.gov is the U.S. government's official web portal to all federal, state and local government web resources and services.